createdAt,value
2018-07-04T00:00:26.599Z,13.00
2018-07-04T00:02:19.900Z,10.90
2018-07-04T00:03:19.820Z,9.10
2018-07-04T00:05:13.100Z,10.00
2018-07-04T00:06:13.039Z,10.90
2018-07-04T00:08:06.331Z,9.20
2018-07-04T00:09:06.251Z,11.60
2018-07-04T00:10:59.552Z,7.20
2018-07-04T00:11:59.472Z,9.20
2018-07-04T00:13:52.755Z,11.60
2018-07-04T00:14:52.696Z,10.00
2018-07-04T00:16:45.993Z,11.90
2018-07-04T00:17:45.906Z,8.00
2018-07-04T00:19:39.196Z,12.00
2018-07-04T00:20:39.133Z,11.40
2018-07-04T00:22:32.432Z,12.30
2018-07-04T00:23:32.351Z,9.40
2018-07-04T00:25:25.632Z,12.00
2018-07-04T00:26:25.571Z,11.90
2018-07-04T00:28:18.862Z,9.70
2018-07-04T00:29:18.782Z,15.70
2018-07-04T00:31:12.079Z,13.70
2018-07-04T00:32:11.999Z,11.30
2018-07-04T00:34:05.342Z,10.60
2018-07-04T00:35:05.282Z,8.60
2018-07-04T00:36:58.579Z,9.40
2018-07-04T00:37:58.498Z,12.30
2018-07-04T00:39:51.777Z,10.90
2018-07-04T00:40:51.717Z,10.40
2018-07-04T00:42:45.015Z,10.80
2018-07-04T00:43:44.937Z,11.60
2018-07-04T00:45:38.215Z,10.80
2018-07-04T00:46:38.154Z,10.40
2018-07-04T00:48:31.444Z,11.40
2018-07-04T00:49:31.363Z,17.30
2018-07-04T00:51:24.660Z,11.60
2018-07-04T00:52:24.582Z,9.70
2018-07-04T00:54:17.858Z,12.60
2018-07-04T00:55:17.798Z,16.00
2018-07-04T00:57:11.096Z,9.60
2018-07-04T00:58:11.016Z,10.80
2018-07-04T01:00:04.294Z,12.20
2018-07-04T01:01:04.231Z,14.20
2018-07-04T01:02:57.529Z,12.60
2018-07-04T01:03:57.450Z,12.00
2018-07-04T01:05:50.728Z,11.80
2018-07-04T01:06:50.667Z,11.00
2018-07-04T01:08:43.955Z,9.80
2018-07-04T01:09:43.874Z,11.30
2018-07-04T01:11:37.176Z,12.20
2018-07-04T01:12:37.091Z,15.20
2018-07-04T01:14:30.368Z,16.40
2018-07-04T01:15:30.306Z,11.10
2018-07-04T01:17:23.709Z,14.90
2018-07-04T01:18:23.524Z,14.70
2018-07-04T01:20:16.805Z,13.70
2018-07-04T01:21:16.743Z,11.70
2018-07-04T01:23:10.042Z,8.90
2018-07-04T01:24:09.960Z,9.90
2018-07-04T01:26:03.340Z,11.10
2018-07-04T01:27:03.279Z,13.50
2018-07-04T01:28:56.677Z,11.90
2018-07-04T01:29:56.494Z,12.00
2018-07-04T01:31:49.806Z,12.30
2018-07-04T01:32:49.721Z,12.40
2018-07-04T01:34:43.020Z,10.60
2018-07-04T01:35:42.935Z,11.50
2018-07-04T01:37:36.230Z,9.00
2018-07-04T01:38:36.150Z,8.80
2018-07-04T01:40:29.427Z,13.60
2018-07-04T01:41:29.368Z,9.90
2018-07-04T01:43:22.664Z,11.80
2018-07-04T01:44:22.581Z,12.10
2018-07-04T01:46:15.860Z,12.10
2018-07-04T01:47:15.802Z,13.80
2018-07-04T01:49:09.093Z,16.10
2018-07-04T01:50:09.013Z,14.00
2018-07-04T01:52:02.291Z,12.30
2018-07-04T01:53:02.226Z,15.30
2018-07-04T01:54:55.522Z,11.30
2018-07-04T01:55:55.441Z,13.00
2018-07-04T01:57:48.741Z,12.50
2018-07-04T01:58:48.659Z,16.40
2018-07-04T02:00:41.939Z,11.50
2018-07-04T02:01:41.878Z,13.40
2018-07-04T02:03:35.170Z,10.10
2018-07-04T02:04:35.089Z,9.80
2018-07-04T02:06:28.369Z,12.70
2018-07-04T02:07:28.308Z,15.10
2018-07-04T02:09:21.602Z,12.30
2018-07-04T02:10:21.521Z,12.70
2018-07-04T02:12:14.797Z,10.40
2018-07-04T02:13:14.736Z,11.20
2018-07-04T02:15:08.134Z,14.60
2018-07-04T02:16:07.949Z,13.70
2018-07-04T02:18:01.242Z,11.50
2018-07-04T02:19:01.159Z,10.70
2018-07-04T02:20:54.539Z,12.20
2018-07-04T02:21:54.374Z,13.80
2018-07-04T02:23:47.669Z,16.20
2018-07-04T02:24:47.587Z,11.60
2018-07-04T02:26:40.866Z,15.30
2018-07-04T02:27:40.800Z,15.80
2018-07-04T02:29:34.102Z,18.90
2018-07-04T02:30:34.017Z,17.40
2018-07-04T02:32:27.292Z,12.70
2018-07-04T02:33:27.230Z,11.00
2018-07-04T02:35:20.629Z,15.60
2018-07-04T02:36:20.447Z,11.20
2018-07-04T02:38:13.735Z,11.20
2018-07-04T02:39:13.652Z,15.90
2018-07-04T02:41:06.928Z,13.80
2018-07-04T02:42:06.869Z,13.60
2018-07-04T02:44:00.163Z,15.00
2018-07-04T02:45:00.189Z,13.70
2018-07-04T02:46:53.360Z,15.20
2018-07-04T02:47:53.294Z,15.10
2018-07-04T02:49:46.590Z,13.40
2018-07-04T02:50:46.510Z,12.80
2018-07-04T02:52:39.784Z,13.80
2018-07-04T02:53:39.723Z,12.00
2018-07-04T02:55:33.031Z,18.30
2018-07-04T02:56:32.959Z,16.20
2018-07-04T02:58:26.204Z,14.00
2018-07-04T02:59:26.143Z,14.60
2018-07-04T03:01:19.444Z,13.20
2018-07-04T03:02:19.356Z,13.80
2018-07-04T03:04:12.649Z,16.40
2018-07-04T03:05:12.570Z,15.10
2018-07-04T03:07:05.846Z,15.60
2018-07-04T03:08:05.786Z,14.20
2018-07-04T03:09:59.078Z,14.40
2018-07-04T03:10:58.997Z,12.20
2018-07-04T03:12:52.338Z,14.70
2018-07-04T03:13:52.274Z,17.10
2018-07-04T03:15:45.570Z,11.90
2018-07-04T03:16:45.486Z,15.70
2018-07-04T03:18:38.756Z,20.80
2018-07-04T03:19:38.695Z,21.30
2018-07-04T03:21:31.985Z,15.30
2018-07-04T03:22:31.907Z,13.30
2018-07-04T03:24:25.201Z,13.90
2018-07-04T03:25:25.121Z,17.50
2018-07-04T03:27:18.395Z,15.40
2018-07-04T03:28:18.332Z,17.80
2018-07-04T03:30:11.732Z,14.50
2018-07-04T03:31:11.545Z,15.50
2018-07-04T03:33:04.885Z,18.60
2018-07-04T03:34:04.758Z,15.10
2018-07-04T03:35:58.055Z,15.50
2018-07-04T03:36:57.971Z,16.90
2018-07-04T03:38:51.339Z,13.50
2018-07-04T03:39:51.281Z,15.20
2018-07-04T03:41:44.572Z,13.60
2018-07-04T03:42:44.489Z,16.40
2018-07-04T03:44:37.768Z,20.10
2018-07-04T03:45:37.705Z,17.10
2018-07-04T03:47:30.999Z,14.20
2018-07-04T03:48:30.914Z,16.20
2018-07-04T03:50:24.212Z,21.10
2018-07-04T03:51:24.132Z,18.10
2018-07-04T03:53:17.409Z,15.50
2018-07-04T03:54:17.346Z,17.60
2018-07-04T03:56:11.641Z,17.60
2018-07-04T03:57:11.561Z,14.90
2018-07-04T03:59:04.837Z,19.10
2018-07-04T04:00:04.775Z,15.50
2018-07-04T04:01:58.070Z,16.20
2018-07-04T04:02:57.991Z,19.50
2018-07-04T04:04:51.342Z,17.70
2018-07-04T04:05:51.279Z,16.00
2018-07-04T04:07:44.578Z,16.40
2018-07-04T04:08:44.496Z,16.20
2018-07-04T04:10:37.773Z,16.60
2018-07-04T04:11:37.717Z,18.30
2018-07-04T04:13:30.994Z,15.10
2018-07-04T04:14:30.921Z,15.30
2018-07-04T04:16:24.205Z,14.50
2018-07-04T04:17:24.123Z,11.80
2018-07-04T04:19:17.402Z,14.70
2018-07-04T04:20:17.336Z,12.40
2018-07-04T04:22:10.622Z,14.30
2018-07-04T04:23:10.544Z,14.60
2018-07-04T04:25:03.819Z,14.70
2018-07-04T04:26:03.754Z,15.30
2018-07-04T04:27:57.042Z,17.30
2018-07-04T04:28:56.961Z,14.80
2018-07-04T04:30:50.229Z,13.20
2018-07-04T04:31:50.165Z,16.50
2018-07-04T04:33:43.463Z,12.60
2018-07-04T04:34:43.381Z,15.10
2018-07-04T04:36:36.659Z,16.80
2018-07-04T04:37:36.598Z,16.40
2018-07-04T04:39:30.889Z,14.20
2018-07-04T04:40:30.812Z,18.40
2018-07-04T04:42:24.120Z,16.70
2018-07-04T04:43:24.015Z,20.10
2018-07-04T04:45:17.346Z,21.30
2018-07-04T04:46:17.283Z,18.40
2018-07-04T04:48:10.580Z,19.90
2018-07-04T04:49:10.499Z,16.60
2018-07-04T04:51:03.776Z,25.70
2018-07-04T04:52:03.719Z,15.90
2018-07-04T04:53:57.014Z,15.70
2018-07-04T04:54:56.934Z,18.90
2018-07-04T04:56:50.210Z,15.80
2018-07-04T04:57:50.147Z,14.80
2018-07-04T04:59:43.436Z,21.80
2018-07-04T05:00:43.355Z,18.40
2018-07-04T05:02:36.644Z,15.50
2018-07-04T05:03:36.562Z,14.70
2018-07-04T05:05:29.832Z,14.30
2018-07-04T05:06:29.778Z,15.40
2018-07-04T05:08:23.059Z,17.80
2018-07-04T05:09:22.980Z,16.90
2018-07-04T05:11:16.272Z,16.30
2018-07-04T05:12:16.204Z,16.80
2018-07-04T05:14:09.528Z,16.40
2018-07-04T05:15:09.450Z,15.50
2018-07-04T05:17:02.731Z,17.20
2018-07-04T05:18:02.669Z,16.80
2018-07-04T05:19:55.966Z,16.70
2018-07-04T05:20:55.902Z,15.00
2018-07-04T05:22:49.184Z,19.30
2018-07-04T05:23:49.096Z,15.80
2018-07-04T05:25:43.393Z,20.50
2018-07-04T05:26:43.313Z,16.30
2018-07-04T05:28:36.610Z,14.20
2018-07-04T05:29:36.529Z,18.10
2018-07-04T05:31:29.810Z,15.20
2018-07-04T05:32:29.752Z,20.90
2018-07-04T05:34:23.047Z,21.20
2018-07-04T05:35:22.968Z,27.90
2018-07-04T05:37:16.238Z,16.10
2018-07-04T05:38:16.179Z,14.80
2018-07-04T05:40:09.479Z,14.50
2018-07-04T05:41:09.402Z,19.50
2018-07-04T05:43:02.698Z,16.20
2018-07-04T05:44:02.609Z,14.70
2018-07-04T05:45:55.899Z,15.40
2018-07-04T05:46:55.827Z,13.70
2018-07-04T05:48:49.121Z,19.30
2018-07-04T05:49:49.043Z,15.90
2018-07-04T05:51:42.330Z,16.80
2018-07-04T05:52:42.265Z,14.80
2018-07-04T05:54:35.565Z,19.30
2018-07-04T05:55:35.486Z,16.30
2018-07-04T05:57:28.773Z,19.60
2018-07-04T05:58:28.708Z,15.20
2018-07-04T06:00:22.195Z,17.80
2018-07-04T06:01:21.933Z,15.90
2018-07-04T06:03:15.245Z,17.00
2018-07-04T06:04:15.156Z,16.50
2018-07-04T06:06:08.448Z,19.30
2018-07-04T06:07:08.383Z,15.90
2018-07-04T06:09:01.688Z,17.80
2018-07-04T06:10:01.609Z,15.60
2018-07-04T06:11:54.881Z,14.80
2018-07-04T06:12:54.822Z,13.60
2018-07-04T06:14:48.127Z,12.50
2018-07-04T06:15:48.050Z,13.80
2018-07-04T06:17:41.393Z,12.90
2018-07-04T06:18:41.288Z,12.70
2018-07-04T06:20:34.600Z,13.80
2018-07-04T06:21:34.519Z,16.30
2018-07-04T06:23:27.809Z,11.90
2018-07-04T06:24:27.756Z,13.30
2018-07-04T06:26:21.073Z,16.50
2018-07-04T06:27:20.994Z,14.20
2018-07-04T06:29:14.308Z,13.40
2018-07-04T06:30:14.229Z,11.30
2018-07-04T06:32:07.521Z,11.80
2018-07-04T06:33:07.463Z,14.90
2018-07-04T06:35:00.771Z,14.80
2018-07-04T06:36:00.699Z,10.60
2018-07-04T06:37:53.981Z,10.90
2018-07-04T06:38:53.923Z,11.30
2018-07-04T06:40:47.232Z,17.40
2018-07-04T06:41:47.156Z,11.40
2018-07-04T06:43:40.444Z,15.50
2018-07-04T06:44:40.386Z,14.40
2018-07-04T06:46:33.694Z,12.60
2018-07-04T06:47:33.618Z,17.80
2018-07-04T06:49:26.939Z,14.10
2018-07-04T06:50:26.850Z,11.70
2018-07-04T06:52:20.140Z,14.10
2018-07-04T06:53:20.084Z,13.60
2018-07-04T06:55:13.382Z,17.90
2018-07-04T06:56:13.310Z,15.20
2018-07-04T06:58:06.587Z,15.50
2018-07-04T06:59:06.536Z,15.20
2018-07-04T07:00:59.839Z,12.10
2018-07-04T07:01:59.903Z,14.00
2018-07-04T07:03:53.055Z,10.90
2018-07-04T07:04:53.003Z,10.90
2018-07-04T07:06:47.405Z,14.80
2018-07-04T07:07:47.289Z,16.50
2018-07-04T07:09:40.579Z,16.00
2018-07-04T07:10:40.521Z,12.90
2018-07-04T07:12:33.830Z,12.10
2018-07-04T07:13:33.755Z,11.20
2018-07-04T07:15:27.061Z,16.20
2018-07-04T07:16:26.990Z,13.80
2018-07-04T07:18:21.346Z,15.80
2018-07-04T07:19:21.289Z,12.80
2018-07-04T07:21:15.631Z,13.30
2018-07-04T07:22:15.513Z,14.50
2018-07-04T07:24:08.802Z,15.70
2018-07-04T07:25:08.745Z,17.70
2018-07-04T07:27:02.068Z,16.20
2018-07-04T07:28:01.998Z,23.60
2018-07-04T07:29:55.345Z,13.20
2018-07-04T07:30:55.292Z,13.00
2018-07-04T07:32:48.605Z,14.50
2018-07-04T07:33:48.531Z,12.50
2018-07-04T07:35:41.853Z,13.10
2018-07-04T07:36:41.772Z,14.70
2018-07-04T07:38:35.065Z,14.50
2018-07-04T07:39:35.014Z,13.60
2018-07-04T07:41:28.323Z,12.50
2018-07-04T07:42:28.251Z,15.70
2018-07-04T07:44:21.641Z,13.40
2018-07-04T07:45:21.489Z,16.20
2018-07-04T07:47:14.798Z,12.40
2018-07-04T07:48:14.726Z,12.70
2018-07-04T07:50:08.021Z,15.20
2018-07-04T07:51:07.962Z,14.00
2018-07-04T07:53:02.278Z,13.10
2018-07-04T07:54:02.289Z,15.60
2018-07-04T07:55:56.499Z,13.50
2018-07-04T07:56:56.433Z,10.80
2018-07-04T07:58:49.744Z,9.70
2018-07-04T07:59:49.672Z,9.30
2018-07-04T08:01:42.990Z,9.20
2018-07-04T08:02:42.909Z,8.30
2018-07-04T08:04:36.202Z,12.50
2018-07-04T08:05:36.149Z,11.50
2018-07-04T08:07:29.462Z,8.50
2018-07-04T08:08:29.387Z,9.30
2018-07-04T08:10:22.681Z,11.00
2018-07-04T08:11:22.625Z,11.30
2018-07-04T08:13:15.938Z,7.70
2018-07-04T08:14:15.867Z,7.10
2018-07-04T08:16:09.160Z,8.30
2018-07-04T08:17:09.106Z,11.20
2018-07-04T08:19:02.421Z,6.90
2018-07-04T08:20:02.351Z,7.90
2018-07-04T08:21:56.647Z,9.50
2018-07-04T08:22:56.594Z,10.30
2018-07-04T08:24:50.911Z,10.30
2018-07-04T08:25:50.837Z,9.00
2018-07-04T08:27:45.145Z,8.40
2018-07-04T08:28:45.091Z,7.50
2018-07-04T08:30:38.373Z,11.00
2018-07-04T08:31:38.338Z,11.00
2018-07-04T08:33:31.692Z,8.80
2018-07-04T08:34:31.570Z,10.70
2018-07-04T08:36:24.882Z,11.80
2018-07-04T08:37:24.844Z,11.00
2018-07-04T08:39:18.156Z,9.80
2018-07-04T08:40:18.063Z,9.30
2018-07-04T08:42:11.364Z,10.60
2018-07-04T08:43:11.313Z,9.20
2018-07-04T08:45:04.631Z,6.60
2018-07-04T08:46:04.559Z,7.30
2018-07-04T08:47:57.869Z,11.40
2018-07-04T08:48:57.807Z,9.50
2018-07-04T08:50:51.113Z,8.60
2018-07-04T08:51:51.048Z,9.30
2018-07-04T08:53:44.364Z,8.10
2018-07-04T08:54:44.296Z,8.20
2018-07-04T08:56:37.693Z,6.20
2018-07-04T08:57:37.545Z,7.30
2018-07-04T08:59:30.867Z,7.50
2018-07-04T09:00:30.795Z,8.10
2018-07-04T09:02:24.096Z,11.80
2018-07-04T09:03:24.044Z,12.60
2018-07-04T09:05:17.457Z,10.30
2018-07-04T09:06:17.297Z,5.90
2018-07-04T09:08:10.608Z,10.10
2018-07-04T09:09:10.538Z,10.60
2018-07-04T09:11:03.934Z,7.00
2018-07-04T09:12:03.788Z,7.80
2018-07-04T09:13:57.105Z,12.10
2018-07-04T09:14:57.034Z,9.30
2018-07-04T09:16:50.336Z,5.90
2018-07-04T09:17:50.289Z,6.10
2018-07-04T09:19:43.623Z,9.00
2018-07-04T09:20:43.543Z,9.20
2018-07-04T09:22:36.849Z,8.00
2018-07-04T09:23:36.796Z,9.70
2018-07-04T09:25:30.212Z,8.70
2018-07-04T09:26:30.045Z,7.60
2018-07-04T09:28:23.380Z,9.50
2018-07-04T09:29:23.315Z,7.50
2018-07-04T09:31:17.222Z,11.10
2018-07-04T09:32:16.558Z,6.80
2018-07-04T09:34:09.877Z,8.50
2018-07-04T09:35:09.809Z,6.70
2018-07-04T09:37:03.119Z,6.00
2018-07-04T09:38:03.062Z,6.30
2018-07-04T09:39:56.383Z,8.20
2018-07-04T09:40:56.308Z,12.80
2018-07-04T09:42:50.713Z,9.70
2018-07-04T09:43:50.615Z,8.10
2018-07-04T09:45:43.886Z,9.20
2018-07-04T09:46:43.817Z,9.70
2018-07-04T09:48:37.109Z,7.80
2018-07-04T09:49:37.062Z,8.40
2018-07-04T09:51:30.381Z,11.50
2018-07-04T09:52:30.314Z,7.30
2018-07-04T09:54:23.632Z,9.90
2018-07-04T09:55:23.566Z,6.30
2018-07-04T09:57:16.964Z,7.80
2018-07-04T09:58:16.831Z,10.30
2018-07-04T10:00:10.137Z,7.90
2018-07-04T10:01:10.066Z,10.40
2018-07-04T10:03:04.374Z,9.40
2018-07-04T10:04:04.321Z,9.40
2018-07-04T10:05:57.737Z,9.90
2018-07-04T10:06:57.576Z,5.20
2018-07-04T10:08:50.885Z,13.60
2018-07-04T10:09:50.837Z,9.90
2018-07-04T10:11:44.252Z,8.00
2018-07-04T10:12:44.171Z,7.40
2018-07-04T10:14:38.484Z,7.00
2018-07-04T10:15:38.344Z,10.90
2018-07-04T10:17:31.650Z,10.30
2018-07-04T10:18:31.602Z,10.50
2018-07-04T10:20:24.926Z,8.60
2018-07-04T10:21:24.866Z,7.50
2018-07-04T10:23:18.169Z,9.40
2018-07-04T10:24:18.120Z,13.20
2018-07-04T10:26:12.439Z,7.10
2018-07-04T10:27:12.383Z,8.00
2018-07-04T10:29:05.769Z,6.80
2018-07-04T10:30:05.632Z,13.60
2018-07-04T10:32:00.067Z,6.00
2018-07-04T10:32:59.891Z,5.70
2018-07-04T10:34:53.211Z,8.10
2018-07-04T10:35:53.153Z,6.90
2018-07-04T10:37:46.438Z,10.60
2018-07-04T10:38:46.391Z,5.80
2018-07-04T10:40:39.717Z,10.80
2018-07-04T10:41:39.651Z,6.50
2018-07-04T10:43:32.957Z,7.90
2018-07-04T10:44:32.907Z,7.70
2018-07-04T10:46:26.234Z,7.30
2018-07-04T10:47:26.165Z,6.60
2018-07-04T10:49:19.473Z,4.20
2018-07-04T10:50:19.427Z,4.20
2018-07-04T10:52:12.849Z,9.50
2018-07-04T10:53:12.689Z,6.50
2018-07-04T10:55:06.037Z,4.40
2018-07-04T10:56:05.951Z,4.50
2018-07-04T10:57:59.354Z,7.20
2018-07-04T10:58:59.306Z,9.40
2018-07-04T11:00:52.633Z,5.60
2018-07-04T11:01:52.568Z,7.30
2018-07-04T11:03:45.907Z,7.10
2018-07-04T11:04:45.842Z,5.90
2018-07-04T11:06:39.160Z,4.40
2018-07-04T11:07:39.113Z,6.90
2018-07-04T11:09:32.400Z,8.40
2018-07-04T11:10:32.352Z,9.50
2018-07-04T11:12:25.685Z,5.20
2018-07-04T11:13:25.626Z,7.60
2018-07-04T11:15:18.935Z,9.30
2018-07-04T11:16:18.867Z,8.70
2018-07-04T11:18:12.168Z,7.30
2018-07-04T11:19:12.123Z,11.30
2018-07-04T11:21:06.541Z,7.30
2018-07-04T11:22:06.381Z,5.70
2018-07-04T11:24:01.536Z,5.90
2018-07-04T11:25:01.488Z,3.70
2018-07-04T11:26:54.912Z,7.70
2018-07-04T11:27:54.745Z,8.10
2018-07-04T11:29:48.052Z,7.70
2018-07-04T11:30:48.015Z,9.10
2018-07-04T11:32:41.382Z,7.20
2018-07-04T11:33:41.311Z,5.10
2018-07-04T11:35:34.635Z,9.40
2018-07-04T11:36:34.571Z,7.30
2018-07-04T11:38:27.915Z,8.90
2018-07-04T11:39:27.823Z,6.40
2018-07-04T11:41:20.661Z,8.00
2018-07-04T11:42:20.592Z,9.10
2018-07-04T11:44:14.897Z,7.50
2018-07-04T11:45:14.849Z,7.70
2018-07-04T11:47:08.173Z,10.80
2018-07-04T11:48:08.105Z,10.10
2018-07-04T11:50:01.413Z,6.90
2018-07-04T11:51:01.362Z,9.90
2018-07-04T11:52:54.687Z,8.20
2018-07-04T11:53:54.618Z,7.60
2018-07-04T11:55:47.941Z,8.90
2018-07-04T11:56:47.872Z,12.50
2018-07-04T11:58:41.167Z,13.00
2018-07-04T11:59:41.118Z,9.10
2018-07-04T12:01:34.441Z,7.90
2018-07-04T12:02:34.369Z,9.00
2018-07-04T12:04:27.672Z,11.20
2018-07-04T12:05:27.661Z,9.80
2018-07-04T12:07:20.973Z,9.00
2018-07-04T12:08:20.904Z,9.40
2018-07-04T12:10:14.206Z,8.70
2018-07-04T12:11:14.156Z,13.10
2018-07-04T12:13:08.475Z,7.70
2018-07-04T12:14:08.411Z,9.30
2018-07-04T12:16:01.706Z,8.50
2018-07-04T12:17:01.656Z,11.00
2018-07-04T12:18:54.977Z,7.20
2018-07-04T12:19:54.905Z,9.00
2018-07-04T12:21:48.324Z,6.60
2018-07-04T12:22:48.161Z,10.50
2018-07-04T12:24:41.461Z,7.60
2018-07-04T12:25:41.416Z,7.90
2018-07-04T12:27:34.731Z,6.90
2018-07-04T12:28:34.663Z,8.70
2018-07-04T12:30:27.965Z,8.50
2018-07-04T12:31:27.914Z,7.70
2018-07-04T12:33:21.233Z,6.40
2018-07-04T12:34:21.163Z,7.70
2018-07-04T12:36:14.467Z,6.40
2018-07-04T12:37:14.414Z,8.70
2018-07-04T12:39:07.742Z,7.50
2018-07-04T12:40:07.672Z,9.20
2018-07-04T12:42:01.088Z,6.00
2018-07-04T12:43:00.920Z,7.80
2018-07-04T12:44:54.221Z,7.10
2018-07-04T12:45:54.171Z,5.90
2018-07-04T12:47:47.483Z,7.50
2018-07-04T12:48:47.414Z,5.70
2018-07-04T12:50:40.715Z,8.20
2018-07-04T12:51:40.665Z,6.40
2018-07-04T12:53:33.982Z,7.20
2018-07-04T12:54:33.924Z,5.00
2018-07-04T12:56:27.211Z,8.10
2018-07-04T12:57:27.187Z,7.40
2018-07-04T12:59:20.525Z,8.90
2018-07-04T13:00:20.413Z,8.10
2018-07-04T13:02:13.714Z,6.80
2018-07-04T13:03:13.663Z,8.90
2018-07-04T13:05:06.983Z,7.00
2018-07-04T13:06:06.914Z,7.90
2018-07-04T13:08:00.227Z,12.10
2018-07-04T13:09:00.155Z,8.70
2018-07-04T13:10:53.457Z,8.60
2018-07-04T13:11:53.407Z,8.70
2018-07-04T13:13:46.724Z,7.80
2018-07-04T13:14:46.656Z,6.60
2018-07-04T13:16:39.956Z,10.30
2018-07-04T13:17:39.909Z,6.40
2018-07-04T13:19:33.275Z,11.60
2018-07-04T13:20:33.156Z,12.20
2018-07-04T13:22:26.457Z,6.40
2018-07-04T13:23:26.407Z,5.40
2018-07-04T13:25:19.727Z,7.60
2018-07-04T13:26:19.657Z,5.30
2018-07-04T13:28:12.982Z,6.00
2018-07-04T13:29:12.899Z,10.10
2018-07-04T13:31:06.200Z,6.70
2018-07-04T13:32:06.175Z,6.50
2018-07-04T13:33:59.473Z,5.80
2018-07-04T13:34:59.406Z,5.50
2018-07-04T13:36:52.799Z,8.70
2018-07-04T13:37:52.652Z,8.30
2018-07-04T13:39:45.971Z,7.60
2018-07-04T13:40:45.902Z,5.60
2018-07-04T13:42:39.204Z,6.00
2018-07-04T13:43:39.152Z,7.20
2018-07-04T13:45:32.471Z,3.90
2018-07-04T13:46:32.402Z,6.40
2018-07-04T13:48:25.694Z,6.90
2018-07-04T13:49:25.710Z,5.10
2018-07-04T13:51:18.962Z,6.10
2018-07-04T13:52:18.894Z,7.30
2018-07-04T13:54:12.244Z,7.50
2018-07-04T13:55:12.172Z,6.50
2018-07-04T13:57:05.570Z,7.20
2018-07-04T13:58:05.423Z,4.60
2018-07-04T13:59:58.747Z,7.10
2018-07-04T14:00:58.673Z,6.60
2018-07-04T14:02:52.186Z,6.70
2018-07-04T14:03:52.029Z,4.20
2018-07-04T14:05:45.246Z,6.40
2018-07-04T14:06:45.175Z,7.10
2018-07-04T14:08:38.469Z,10.20
2018-07-04T14:09:38.420Z,5.10
2018-07-04T14:11:31.743Z,6.10
2018-07-04T14:12:31.668Z,6.90
2018-07-04T14:14:24.989Z,9.30
2018-07-04T14:15:24.921Z,5.70
2018-07-04T14:17:18.222Z,7.40
2018-07-04T14:18:18.170Z,8.20
2018-07-04T14:20:11.502Z,6.80
2018-07-04T14:21:11.432Z,5.10
2018-07-04T14:23:04.732Z,7.90
2018-07-04T14:24:04.682Z,9.40
2018-07-04T14:25:58.002Z,5.80
2018-07-04T14:26:57.941Z,7.80
2018-07-04T14:28:51.240Z,7.70
2018-07-04T14:29:51.187Z,12.50
2018-07-04T14:31:44.509Z,6.90
2018-07-04T14:32:44.466Z,8.10
2018-07-04T14:34:37.772Z,9.70
2018-07-04T14:35:37.691Z,10.10
2018-07-04T14:37:30.993Z,9.10
2018-07-04T14:38:30.943Z,11.20
2018-07-04T14:40:24.374Z,5.60
2018-07-04T14:41:24.305Z,4.80
2018-07-04T14:43:17.605Z,5.30
2018-07-04T14:44:17.555Z,8.00
2018-07-04T14:46:10.875Z,8.50
2018-07-04T14:47:10.808Z,7.90
2018-07-04T14:49:04.114Z,8.10
2018-07-04T14:50:04.062Z,7.70
2018-07-04T14:51:57.478Z,7.20
2018-07-04T14:52:57.317Z,6.20
2018-07-04T14:54:50.645Z,4.80
2018-07-04T14:55:50.571Z,6.10
2018-07-04T14:57:43.926Z,8.70
2018-07-04T14:58:43.808Z,6.60
2018-07-04T15:00:37.119Z,7.30
2018-07-04T15:01:37.049Z,4.10
2018-07-04T15:03:30.359Z,11.60
2018-07-04T15:04:30.324Z,6.40
2018-07-04T15:06:23.613Z,4.70
2018-07-04T15:07:23.546Z,5.90
2018-07-04T15:09:16.835Z,8.90
2018-07-04T15:10:16.785Z,7.00
2018-07-04T15:12:10.095Z,4.60
2018-07-04T15:13:10.027Z,12.40
2018-07-04T15:15:03.316Z,5.60
2018-07-04T15:16:03.272Z,5.10
2018-07-04T15:17:56.578Z,10.70
2018-07-04T15:18:56.507Z,6.70
2018-07-04T15:20:50.819Z,6.40
2018-07-04T15:21:50.750Z,7.80
2018-07-04T15:23:44.037Z,6.90
2018-07-04T15:24:43.986Z,10.20
2018-07-04T15:26:37.295Z,9.30
2018-07-04T15:27:37.227Z,6.00
2018-07-04T15:29:30.516Z,5.80
2018-07-04T15:30:30.539Z,5.50
2018-07-04T15:32:23.776Z,8.20
2018-07-04T15:33:23.704Z,7.60
2018-07-04T15:35:17.102Z,10.50
2018-07-04T15:36:16.943Z,6.50
2018-07-04T15:38:10.282Z,7.00
2018-07-04T15:39:10.184Z,7.70
2018-07-04T15:41:04.610Z,9.50
2018-07-04T15:42:04.422Z,9.90
2018-07-04T15:43:57.708Z,7.90
2018-07-04T15:44:57.659Z,6.90
2018-07-04T15:46:50.966Z,11.40
2018-07-04T15:47:50.897Z,11.60
2018-07-04T15:49:44.204Z,10.60
2018-07-04T15:50:44.134Z,15.20
2018-07-04T15:52:38.430Z,7.50
2018-07-04T15:53:38.376Z,7.80
2018-07-04T15:55:31.689Z,8.30
2018-07-04T15:56:31.621Z,11.20
2018-07-04T15:58:25.908Z,7.80
2018-07-04T15:59:25.868Z,9.00
2018-07-04T16:01:20.775Z,28.70
2018-07-04T16:02:20.107Z,7.60
2018-07-04T16:04:13.522Z,10.70
2018-07-04T16:05:13.339Z,9.10
2018-07-04T16:07:06.643Z,11.40
2018-07-04T16:08:06.593Z,6.60
2018-07-04T16:09:59.898Z,9.70
2018-07-04T16:10:59.891Z,8.40
2018-07-04T16:12:53.148Z,9.10
2018-07-04T16:13:53.080Z,11.30
2018-07-04T16:15:46.522Z,11.10
2018-07-04T16:16:46.450Z,8.50
2018-07-04T16:18:39.772Z,10.60
2018-07-04T16:19:39.731Z,8.10
2018-07-04T16:21:32.997Z,13.70
2018-07-04T16:22:32.946Z,11.10
2018-07-04T16:24:26.259Z,10.50
2018-07-04T16:25:26.191Z,11.30
2018-07-04T16:27:19.502Z,8.50
2018-07-04T16:28:19.433Z,8.90
2018-07-04T16:30:12.726Z,8.60
2018-07-04T16:31:12.673Z,10.10
2018-07-04T16:33:05.983Z,9.00
2018-07-04T16:34:05.914Z,7.50
2018-07-04T16:35:59.310Z,7.30
2018-07-04T16:36:59.181Z,7.10
2018-07-04T16:38:53.500Z,8.20
2018-07-04T16:39:53.431Z,5.80
2018-07-04T16:41:46.724Z,11.10
2018-07-04T16:42:46.681Z,10.20
2018-07-04T16:44:39.983Z,7.40
2018-07-04T16:45:39.968Z,12.40
2018-07-04T16:47:33.206Z,9.60
2018-07-04T16:48:33.156Z,9.40
2018-07-04T16:50:26.465Z,8.40
2018-07-04T16:51:26.397Z,8.60
2018-07-04T16:53:19.705Z,8.20
2018-07-04T16:54:19.636Z,10.90
2018-07-04T16:56:13.816Z,5.50
2018-07-04T16:57:13.727Z,7.20
2018-07-04T16:59:08.038Z,10.60
2018-07-04T17:00:07.969Z,7.10
2018-07-04T17:02:01.261Z,5.40
2018-07-04T17:03:01.212Z,6.90
2018-07-04T17:04:54.532Z,9.30
2018-07-04T17:05:54.467Z,6.90
2018-07-04T17:07:47.758Z,8.50
2018-07-04T17:08:47.707Z,5.90
2018-07-04T17:10:41.024Z,5.60
2018-07-04T17:11:40.955Z,8.00
2018-07-04T17:13:34.378Z,9.10
2018-07-04T17:14:34.308Z,9.00
2018-07-04T17:16:27.596Z,5.70
2018-07-04T17:17:27.545Z,8.90
2018-07-04T17:19:20.855Z,9.30
2018-07-04T17:20:20.787Z,11.90
2018-07-04T17:22:14.074Z,8.20
2018-07-04T17:23:14.025Z,7.20
2018-07-04T17:25:08.378Z,6.50
2018-07-04T17:26:08.308Z,9.40
2018-07-04T17:28:01.597Z,11.90
2018-07-04T17:29:01.546Z,8.60
2018-07-04T17:30:54.856Z,9.00
2018-07-04T17:31:54.782Z,7.40
2018-07-04T17:33:48.100Z,10.50
2018-07-04T17:34:48.043Z,8.80
2018-07-04T17:36:41.318Z,8.90
2018-07-04T17:37:41.266Z,12.20
2018-07-04T17:39:34.579Z,9.40
2018-07-04T17:40:34.501Z,5.70
2018-07-04T17:42:27.789Z,7.50
2018-07-04T17:43:27.738Z,12.60
2018-07-04T17:45:21.044Z,6.60
2018-07-04T17:46:20.974Z,11.50
2018-07-04T17:48:14.360Z,10.50
2018-07-04T17:49:14.304Z,12.90
2018-07-04T17:51:07.610Z,6.80
2018-07-04T17:52:07.541Z,8.60
2018-07-04T17:54:00.825Z,11.40
2018-07-04T17:55:00.772Z,7.40
2018-07-04T17:56:54.078Z,10.70
2018-07-04T17:57:54.005Z,10.10
2018-07-04T17:59:47.328Z,8.00
2018-07-04T18:00:47.239Z,11.20
2018-07-04T18:02:40.632Z,8.40
2018-07-04T18:03:40.470Z,8.20
2018-07-04T18:05:33.776Z,6.90
2018-07-04T18:06:33.702Z,9.80
2018-07-04T18:08:26.990Z,8.00
2018-07-04T18:09:26.937Z,8.20
2018-07-04T18:11:20.247Z,13.20
2018-07-04T18:12:20.175Z,7.10
2018-07-04T18:14:13.461Z,12.30
2018-07-04T18:15:13.408Z,7.80
2018-07-04T18:17:06.711Z,12.50
2018-07-04T18:18:06.706Z,11.20
2018-07-04T18:19:59.933Z,9.20
2018-07-04T18:20:59.880Z,6.40
2018-07-04T18:22:53.194Z,10.20
2018-07-04T18:23:53.120Z,10.00
2018-07-04T18:25:46.438Z,10.30
2018-07-04T18:26:46.362Z,11.60
2018-07-04T18:28:39.657Z,9.30
2018-07-04T18:29:39.606Z,13.40
2018-07-04T18:31:32.927Z,12.20
2018-07-04T18:32:32.891Z,10.80
2018-07-04T18:34:26.151Z,7.80
2018-07-04T18:35:26.098Z,9.00
2018-07-04T18:37:19.410Z,9.80
2018-07-04T18:38:19.339Z,11.50
2018-07-04T18:40:12.635Z,10.40
2018-07-04T18:41:12.581Z,10.70
2018-07-04T18:43:05.894Z,7.60
2018-07-04T18:44:05.829Z,10.60
2018-07-04T18:45:59.116Z,12.60
2018-07-04T18:46:59.052Z,10.10
2018-07-04T18:48:52.370Z,11.40
2018-07-04T18:49:52.302Z,11.80
2018-07-04T18:51:45.614Z,7.60
2018-07-04T18:52:45.541Z,6.60